ADDS METAR Data INFO
IDs: Format: Raw Decoded Include TAF

Data at: 0401 UTC 11 Dec 2017

KOTG 110356Z AUTO 22006KT 10SM SCT120 01/M02 A2995 RMK AO2 SLP163 T00061022 FZRANO
KOTG 110256Z AUTO 23007KT 10SM CLR 01/M02 A2999 RMK AO2 SLP175 T00061022 58021 FZRANO
KOTG 110156Z AUTO 23006KT 10SM CLR 01/M02 A3002 RMK AO2 SLP187 T00111022 FZRANO
KOTG 110056Z AUTO 23005KT 10SM SCT120 01/M02 A3004 RMK AO2 SLP193 T00061022 FZRANO
KOTG 102356Z AUTO 00000KT 10SM SCT095 02/M02 A3005 RMK AO2 SLP196 T00171022 10039 20006 51010 FZRANO
KOTG 102256Z AUTO 28006KT 10SM BKN100 02/M02 A3005 RMK AO2 SLP196 T00221022 FZRANO
KOTG 102156Z AUTO 29010KT 10SM OVC100 03/M02 A3004 RMK AO2 SLP191 T00331022
KOTG 102056Z AUTO 29012KT 10SM BKN100 04/M03 A3002 RMK AO2 SLP186 T00391028 58006
KOTG 101956Z AUTO 30014KT 10SM CLR 03/M03 A3004 RMK AO2 SLP192 T00331028
KOTG 101856Z AUTO 29010KT 10SM CLR 03/M03 A3003 RMK AO2 SLP192 T00281028
KOTG 101656Z AUTO 33015KT 10SM CLR 01/M04 A3003 RMK AO2 SLP192 T00111039 FZRANO
KOTG 101556Z AUTO 32012KT 10SM FEW085 01/M03 A3002 RMK AO2 SLP188 T00111033 FZRANO
KOTG 101456Z AUTO 29010KT 10SM CLR M01/M04 A3000 RMK AO2 SLP183 T10061039 51016 FZRANO
KOTG 101356Z AUTO 31011KT 10SM OVC110 M01/M04 A2999 RMK AO2 SLP179 T10061039 FZRANO
KOTG 101256Z AUTO 30010KT 10SM OVC110 M01/M03 A2997 RMK AO2 SLP173 T10061033 FZRANO
KOTG 101156Z AUTO 31010KT 10SM SCT120 M01/M04 A2995 RMK AO2 SLP167 T10061039 11006 21044 53019 FZRANO
KOTG 101056Z AUTO 32013KT 10SM CLR M01/M04 A2993 RMK AO2 SLP159 T10061039 FZRANO
KOTG 100956Z AUTO 32014KT 10SM CLR M01/M04 A2991 RMK AO2 SLP153 T10111039 FZRANO
KOTG 100856Z AUTO 30011KT 10SM CLR M03/M06 A2990 RMK AO2 SLP148 T10281056 53014 FZRANO
KOTG 100756Z AUTO 28014KT 10SM CLR M03/M06 A2987 RMK AO2 SLP141 T10281056 FZRANO
KOTG 100656Z AUTO 26012KT 10SM CLR M04/M07 A2986 RMK AO2 SLP138 T10441067 FZRANO
KOTG 100556Z AUTO 24015KT 10SM CLR M03/M06 A2985 RMK AO2 SLP135 T10331061 11033 21056 410221089 58028 FZRANO
KOTG 100456Z AUTO 23014KT 10SM CLR M04/M07 A2988 RMK AO2 SLP146 T10441072 FZRANO
KOTG 100356Z AUTO 23011KT 10SM CLR M04/M07 A2992 RMK AO2 SLP160 T10441067 FZRANO
KOTG 100256Z AUTO 22012KT 10SM CLR M04/M07 A2994 RMK AO2 SLP167 T10441067 56033 FZRANO
KOTG 100156Z AUTO 22015KT 10SM CLR M05/M07 A2997 RMK AO2 SLP178 T10501072 FZRANO
KOTG 100056Z AUTO 24015KT 10SM CLR M05/M08 A3001 RMK AO2 SLP192 T10501078 FZRANO
KOTG 092356Z AUTO 23009KT 10SM CLR M06/M08 A3004 RMK AO2 SLP203 T10561083 11039 21061 58016 FZRANO
KOTG 092256Z AUTO 22008KT 10SM CLR M06/M09 A3007 RMK AO2 SLP211 T10561089 FZRANO
KOTG 092156Z AUTO 28010KT 10SM CLR M04/M09 A3010 RMK AO2 SLP223 T10441089 FZRANO TSNO
KOTG 092056Z AUTO 27010KT 10SM CLR M04/M09 A3009 RMK AO2 SLP219 T10391094 58008 FZRANO TSNO
KOTG 091956Z AUTO 30009KT 10SM CLR M04/M09 A3011 RMK AO2 SLP225 T10441094 FZRANO
KOTG 091856Z AUTO 30012KT 10SM FEW018 M05/M10 A3011 RMK AO2 SLP225 T10501100 FZRANO
KOTG 091805Z AUTO 32013KT 10SM FEW015 M06/M11 A3012 RMK AO2 FZRANO
KOTG 091756Z AUTO 32010KT 9SM BKN015 M06/M11 A3012 RMK AO2 SNE54 SLP225 P0000 60000 T10611106 11061 21083 50005 FZRANO
KOTG 091656Z AUTO 34016KT 9SM -SN OVC015 M07/M11 A3014 RMK AO2 SLP233 P0000 T10721111 FZRANO